createdAt,value
2023-02-19T00:05:02.013Z,16.10
2023-02-19T00:10:05.570Z,15.15
2023-02-19T00:15:07.712Z,14.98
2023-02-19T00:20:10.056Z,16.23
2023-02-19T00:25:13.158Z,16.95
2023-02-19T00:30:14.934Z,16.65
2023-02-19T00:35:16.935Z,16.48
2023-02-19T00:40:20.152Z,17.05
2023-02-19T00:45:22.057Z,15.52
2023-02-19T00:50:23.754Z,16.37
2023-02-19T00:55:26.941Z,16.83
2023-02-19T01:00:28.671Z,16.83
2023-02-19T01:05:30.457Z,15.85
2023-02-19T01:10:33.614Z,15.90
2023-02-19T01:15:35.990Z,16.20
2023-02-19T01:20:39.017Z,16.45
2023-02-19T01:25:42.611Z,16.70
2023-02-19T01:30:44.370Z,15.90
2023-02-19T01:35:46.096Z,14.27
2023-02-19T01:40:55.731Z,14.77
2023-02-19T01:45:57.519Z,14.85
2023-02-19T01:51:07.096Z,14.25
2023-02-19T01:56:11.487Z,15.25
2023-02-19T02:01:13.916Z,14.13
2023-02-19T02:06:21.250Z,14.65
2023-02-19T02:11:25.112Z,13.10
2023-02-19T02:16:36.993Z,14.40
2023-02-19T02:22:04.484Z,14.75
2023-02-19T02:27:27.313Z,13.70
2023-02-19T02:32:37.188Z,14.15
2023-02-19T02:37:42.085Z,14.93
2023-02-19T02:42:44.127Z,15.40
2023-02-19T02:47:53.345Z,14.63
2023-02-19T02:53:00.060Z,15.10
2023-02-19T02:58:02.536Z,14.57
2023-02-19T03:03:08.096Z,14.63
2023-02-19T03:08:14.629Z,15.07
2023-02-19T03:13:20.631Z,14.75
2023-02-19T03:18:26.240Z,13.00
2023-02-19T03:23:32.502Z,14.90
2023-02-19T03:28:37.694Z,14.85
2023-02-19T03:38:48.247Z,14.48
2023-02-19T03:43:55.812Z,13.43
2023-02-19T03:49:04.002Z,14.10
2023-02-19T03:54:13.061Z,13.25
2023-02-19T03:59:19.035Z,12.15
2023-02-19T04:04:27.426Z,13.13
2023-02-19T04:09:33.175Z,12.63
2023-02-19T04:14:39.577Z,13.30
2023-02-19T04:19:43.086Z,13.48
2023-02-19T04:24:49.147Z,14.07
2023-02-19T04:29:50.951Z,12.55
2023-02-19T04:34:54.447Z,14.13
2023-02-19T04:39:58.620Z,13.02
2023-02-19T04:45:00.530Z,13.57
2023-02-19T04:50:06.539Z,13.80
2023-02-19T04:55:09.147Z,12.43
2023-02-19T05:00:11.828Z,13.35
2023-02-19T05:05:17.228Z,12.35
2023-02-19T05:10:19.100Z,12.05
2023-02-19T05:15:20.870Z,11.57
2023-02-19T05:20:24.016Z,11.73
2023-02-19T05:25:25.717Z,12.77
2023-02-19T05:30:30.057Z,13.05
2023-02-19T05:35:40.117Z,13.83
2023-02-19T05:40:43.059Z,12.40
2023-02-19T05:45:44.833Z,13.07
2023-02-19T05:50:47.956Z,12.45
2023-02-19T05:55:49.771Z,12.90
2023-02-19T06:00:51.961Z,12.27
2023-02-19T06:05:55.037Z,13.18
2023-02-19T06:10:57.883Z,12.40
2023-02-19T06:15:59.819Z,12.55
2023-02-19T06:21:11.606Z,11.88
2023-02-19T06:26:16.113Z,12.00
2023-02-19T06:31:19.299Z,11.87
2023-02-19T06:36:23.425Z,11.75
2023-02-19T06:41:25.313Z,11.68
2023-02-19T06:46:27.183Z,11.38
2023-02-19T06:51:30.417Z,12.02
2023-02-19T06:56:33.903Z,11.43
2023-02-19T07:01:36.530Z,10.73
2023-02-19T07:06:39.743Z,10.65
2023-02-19T07:11:41.484Z,11.23
2023-02-19T07:16:43.563Z,12.18
2023-02-19T07:21:46.754Z,11.90
2023-02-19T07:26:48.446Z,12.93
2023-02-19T07:31:50.303Z,12.57
2023-02-19T07:36:53.468Z,11.93
2023-02-19T07:41:55.288Z,12.25
2023-02-19T07:46:57.039Z,13.43
2023-02-19T07:52:00.190Z,12.07
2023-02-19T07:57:01.921Z,11.38
2023-02-19T08:02:03.680Z,11.57
2023-02-19T08:07:06.764Z,11.25
2023-02-19T08:12:11.872Z,12.00
2023-02-19T08:22:16.623Z,12.77
2023-02-19T08:27:18.364Z,11.50
2023-02-19T08:32:20.016Z,11.35
2023-02-19T08:37:23.202Z,11.07
2023-02-19T08:42:24.919Z,12.35
2023-02-19T08:47:26.678Z,11.73
2023-02-19T08:52:29.872Z,11.93
2023-02-19T08:57:31.626Z,12.32
2023-02-19T09:02:33.868Z,12.27
2023-02-19T09:07:37.275Z,12.70
2023-02-19T09:12:39.046Z,11.43
2023-02-19T09:18:16.886Z,11.85
2023-02-19T09:23:20.115Z,13.30
2023-02-19T09:28:21.850Z,11.90
2023-02-19T09:33:23.737Z,12.43
2023-02-19T09:38:53.584Z,11.75
2023-02-19T09:44:01.369Z,11.95
2023-02-19T09:49:06.475Z,12.20
2023-02-19T09:54:39.624Z,12.23
2023-02-19T09:59:45.205Z,13.48
2023-02-19T10:04:47.898Z,11.90
2023-02-19T10:09:55.388Z,11.98
2023-02-19T10:15:05.200Z,12.60
2023-02-19T10:20:10.209Z,12.25
2023-02-19T10:25:16.003Z,12.40
2023-02-19T10:30:22.146Z,11.45
2023-02-19T10:35:24.031Z,12.60
2023-02-19T10:40:28.673Z,12.07
2023-02-19T10:45:40.650Z,12.60
2023-02-19T10:50:42.479Z,12.50
2023-02-19T10:55:48.323Z,12.37
2023-02-19T11:01:14.607Z,12.90
2023-02-19T11:06:19.692Z,13.10
2023-02-19T11:16:46.205Z,12.48
2023-02-19T11:21:48.266Z,13.50
2023-02-19T11:26:51.418Z,13.20
2023-02-19T11:31:53.208Z,12.10
2023-02-19T11:37:08.922Z,11.70
2023-02-19T11:42:33.450Z,12.45
2023-02-19T11:48:05.610Z,12.80
2023-02-19T11:53:17.037Z,12.93
2023-02-19T11:58:49.362Z,13.10
2023-02-19T12:04:16.422Z,11.73
2023-02-19T12:09:30.036Z,12.82
2023-02-19T12:15:10.560Z,11.70
2023-02-19T12:20:21.582Z,12.98
2023-02-19T12:25:44.404Z,13.00
2023-02-19T12:31:21.743Z,13.30
2023-02-19T12:36:31.199Z,13.10
2023-02-19T12:41:42.674Z,12.70
2023-02-19T12:46:49.404Z,11.98
2023-02-19T12:51:57.827Z,12.50
2023-02-19T12:57:02.934Z,12.88
2023-02-19T13:02:15.025Z,14.27
2023-02-19T13:07:20.520Z,12.63
2023-02-19T13:12:26.102Z,12.50
2023-02-19T13:17:38.385Z,10.90
2023-02-19T13:22:45.435Z,15.75
2023-02-19T13:28:06.393Z,12.32
2023-02-19T13:33:27.593Z,12.65
2023-02-19T13:38:29.499Z,11.65
2023-02-19T13:43:35.171Z,12.90
2023-02-19T13:48:40.558Z,12.60
2023-02-19T13:53:58.964Z,13.32
2023-02-19T13:59:13.904Z,11.93
2023-02-19T14:04:20.642Z,12.68
2023-02-19T14:09:46.691Z,14.55
2023-02-19T14:14:49.034Z,13.10
2023-02-19T14:20:01.928Z,13.55
2023-02-19T14:25:07.814Z,14.00
2023-02-19T14:30:12.084Z,13.90
2023-02-19T14:35:20.194Z,13.80
2023-02-19T14:40:39.342Z,13.25
2023-02-19T14:45:44.254Z,14.45
2023-02-19T14:50:50.481Z,13.13
2023-02-19T14:55:54.832Z,12.82
2023-02-19T15:00:56.911Z,13.77
2023-02-19T15:06:03.346Z,15.02
2023-02-19T15:11:11.130Z,12.95
2023-02-19T15:16:19.129Z,13.90
2023-02-19T15:21:25.272Z,13.77
2023-02-19T15:26:34.050Z,13.57
2023-02-19T15:31:36.207Z,13.77
2023-02-19T15:36:39.509Z,14.38
2023-02-19T15:41:41.221Z,13.80
2023-02-19T15:46:44.598Z,13.13
2023-02-19T15:51:52.216Z,13.07
2023-02-19T15:56:55.947Z,12.37
2023-02-19T16:01:58.991Z,13.20
2023-02-19T16:07:03.248Z,12.90
2023-02-19T16:12:20.731Z,14.80
2023-02-19T16:17:25.465Z,15.45
2023-02-19T16:22:31.257Z,13.13
2023-02-19T16:27:35.242Z,13.62
2023-02-19T16:32:36.999Z,12.93
2023-02-19T16:37:41.619Z,12.95
2023-02-19T16:43:26.137Z,13.85
2023-02-19T16:48:28.354Z,13.20
2023-02-19T16:53:31.431Z,13.05
2023-02-19T16:58:33.171Z,11.93
2023-02-19T17:03:37.378Z,13.70
2023-02-19T17:08:42.062Z,12.97
2023-02-19T17:13:44.804Z,12.45
2023-02-19T17:18:46.879Z,13.07
2023-02-19T17:23:50.323Z,11.85
2023-02-19T17:28:52.269Z,13.32
2023-02-19T17:33:54.428Z,12.37
2023-02-19T17:38:57.902Z,12.57
2023-02-19T17:43:59.680Z,13.20
2023-02-19T17:49:01.361Z,13.02
2023-02-19T17:54:06.344Z,12.10
2023-02-19T17:59:10.072Z,11.60
2023-02-19T18:04:11.897Z,13.10
2023-02-19T18:09:15.044Z,13.02
2023-02-19T18:14:16.856Z,13.38
2023-02-19T18:19:19.072Z,12.70
2023-02-19T18:24:22.234Z,12.13
2023-02-19T18:29:23.988Z,12.00
2023-02-19T18:34:25.695Z,14.27
2023-02-19T18:39:28.717Z,13.93
2023-02-19T18:44:30.495Z,13.43
2023-02-19T18:49:32.314Z,13.80
2023-02-19T18:54:35.399Z,12.93
2023-02-19T18:59:38.999Z,14.63
2023-02-19T19:04:41.146Z,13.27
2023-02-19T19:09:44.291Z,16.77
2023-02-19T19:14:46.173Z,15.77
2023-02-19T19:19:47.902Z,15.27
2023-02-19T19:24:51.032Z,13.27
2023-02-19T19:29:52.825Z,13.60
2023-02-19T19:34:54.679Z,14.10
2023-02-19T19:39:57.998Z,15.77
2023-02-19T19:44:59.832Z,14.57
2023-02-19T19:50:04.261Z,12.80
2023-02-19T19:55:08.286Z,16.47
2023-02-19T20:00:15.465Z,13.73
2023-02-19T20:05:23.973Z,13.48
2023-02-19T20:16:46.019Z,13.75
2023-02-19T20:33:15.181Z,14.27
2023-02-19T20:38:19.693Z,15.27
2023-02-19T20:48:42.189Z,13.73
2023-02-19T20:53:44.128Z,13.55
2023-02-19T20:58:45.900Z,14.68
2023-02-19T21:03:54.597Z,14.40
2023-02-19T21:08:56.482Z,14.23
2023-02-19T21:13:58.475Z,13.93
2023-02-19T21:19:01.960Z,14.32
2023-02-19T21:24:04.148Z,15.35
2023-02-19T21:29:07.196Z,15.35
2023-02-19T21:34:12.028Z,15.45
2023-02-19T21:39:15.888Z,15.63
2023-02-19T21:44:18.073Z,16.12
2023-02-19T21:49:21.389Z,15.77
2023-02-19T21:54:25.476Z,14.65
2023-02-19T21:59:27.499Z,16.02
2023-02-19T22:04:30.724Z,15.82
2023-02-19T22:09:32.671Z,15.55
2023-02-19T22:14:34.682Z,15.38
2023-02-19T22:19:38.136Z,15.00
2023-02-19T22:24:39.953Z,15.43
2023-02-19T22:29:42.069Z,15.23
2023-02-19T22:34:45.476Z,17.15
2023-02-19T22:39:47.329Z,15.68
2023-02-19T22:44:49.135Z,15.77
2023-02-19T22:49:52.632Z,15.40
2023-02-19T22:54:54.645Z,16.00
2023-02-19T22:59:56.442Z,16.05
2023-02-19T23:04:59.747Z,16.52
2023-02-19T23:10:01.655Z,16.40
2023-02-19T23:15:04.366Z,16.33
2023-02-19T23:20:08.879Z,16.73
2023-02-19T23:25:10.894Z,16.23
2023-02-19T23:30:13.274Z,16.98
2023-02-19T23:35:16.494Z,16.33
2023-02-19T23:40:21.852Z,15.73
2023-02-19T23:45:23.856Z,17.83
2023-02-19T23:50:27.069Z,16.73
2023-02-19T23:55:28.993Z,17.02
